sensor_id;sensor_type;location;lat;lon;timestamp;P1;P2;P0
42002;PMS7003;27693;50.506;30.832;2023-11-21T00:01:02;25.90;22.70;15.90
42002;PMS7003;27693;50.506;30.832;2023-11-21T00:02:06;27.10;20.80;13.90
42002;PMS7003;27693;50.506;30.832;2023-11-21T00:03:08;27.70;24.30;16.90
42002;PMS7003;27693;50.506;30.832;2023-11-21T00:04:13;23.80;22.70;15.80
42002;PMS7003;27693;50.506;30.832;2023-11-21T00:05:17;25.80;23.90;17.00
42002;PMS7003;27693;50.506;30.832;2023-11-21T00:06:21;26.40;22.00;14.00
42002;PMS7003;27693;50.506;30.832;2023-11-21T00:07:24;25.70;23.30;17.40
42002;PMS7003;27693;50.506;30.832;2023-11-21T00:08:28;30.70;22.70;15.20
42002;PMS7003;27693;50.506;30.832;2023-11-21T00:09:32;31.10;25.20;17.60
42002;PMS7003;27693;50.506;30.832;2023-11-21T00:10:35;32.50;25.00;17.10
42002;PMS7003;27693;50.506;30.832;2023-11-21T00:11:39;29.10;23.20;16.80
42002;PMS7003;27693;50.506;30.832;2023-11-21T00:12:42;25.27;20.36;13.73
42002;PMS7003;27693;50.506;30.832;2023-11-21T00:13:44;32.30;24.90;17.80
42002;PMS7003;27693;50.506;30.832;2023-11-21T00:14:49;31.60;24.90;15.90
42002;PMS7003;27693;50.506;30.832;2023-11-21T00:15:51;35.80;25.00;17.80
42002;PMS7003;27693;50.506;30.832;2023-11-21T00:16:54;26.27;23.45;18.00
42002;PMS7003;27693;50.506;30.832;2023-11-21T00:17:57;30.60;24.10;17.60
42002;PMS7003;27693;50.506;30.832;2023-11-21T00:19:00;29.90;21.60;14.70
42002;PMS7003;27693;50.506;30.832;2023-11-21T00:20:02;33.60;25.20;18.40
42002;PMS7003;27693;50.506;30.832;2023-11-21T00:21:07;28.60;25.00;18.30
42002;PMS7003;27693;50.506;30.832;2023-11-21T00:22:22;31.10;24.80;17.80
42002;PMS7003;27693;50.506;30.832;2023-11-21T00:23:20;29.70;22.10;17.50
42002;PMS7003;27693;50.506;30.832;2023-11-21T00:24:23;26.50;21.00;15.40
42002;PMS7003;27693;50.506;30.832;2023-11-21T00:25:27;32.10;26.70;18.90
42002;PMS7003;27693;50.506;30.832;2023-11-21T00:26:30;26.09;18.73;16.09
42002;PMS7003;27693;50.506;30.832;2023-11-21T00:27:36;29.10;21.80;13.90
42002;PMS7003;27693;50.506;30.832;2023-11-21T00:28:43;29.73;25.36;17.64
42002;PMS7003;27693;50.506;30.832;2023-11-21T00:29:45;30.00;25.50;17.60
42002;PMS7003;27693;50.506;30.832;2023-11-21T00:30:47;29.80;25.20;17.10
42002;PMS7003;27693;50.506;30.832;2023-11-21T00:31:50;27.60;25.20;18.30
42002;PMS7003;27693;50.506;30.832;2023-11-21T00:32:52;32.50;27.20;20.40
42002;PMS7003;27693;50.506;30.832;2023-11-21T00:33:55;30.90;25.00;16.90
42002;PMS7003;27693;50.506;30.832;2023-11-21T00:34:57;26.90;21.50;14.50
42002;PMS7003;27693;50.506;30.832;2023-11-21T00:36:01;33.50;28.10;18.40
42002;PMS7003;27693;50.506;30.832;2023-11-21T00:37:03;19.00;12.10;8.40
42002;PMS7003;27693;50.506;30.832;2023-11-21T00:38:06;33.00;23.00;15.50
42002;PMS7003;27693;50.506;30.832;2023-11-21T00:39:10;31.00;24.10;16.40
42002;PMS7003;27693;50.506;30.832;2023-11-21T00:40:14;30.60;27.80;19.90
42002;PMS7003;27693;50.506;30.832;2023-11-21T00:41:17;31.40;25.60;18.60
42002;PMS7003;27693;50.506;30.832;2023-11-21T00:42:20;31.70;24.30;18.20
42002;PMS7003;27693;50.506;30.832;2023-11-21T00:43:23;10.10;4.80;2.00
42002;PMS7003;27693;50.506;30.832;2023-11-21T00:44:26;32.00;24.00;17.45
42002;PMS7003;27693;50.506;30.832;2023-11-21T00:45:30;30.90;24.30;15.80
42002;PMS7003;27693;50.506;30.832;2023-11-21T00:46:33;31.30;25.90;19.80
42002;PMS7003;27693;50.506;30.832;2023-11-21T00:47:36;27.64;24.00;17.55
42002;PMS7003;27693;50.506;30.832;2023-11-21T00:48:40;30.00;24.50;17.90
42002;PMS7003;27693;50.506;30.832;2023-11-21T00:49:43;29.00;23.80;18.00
42002;PMS7003;27693;50.506;30.832;2023-11-21T00:50:46;22.40;18.00;13.00
42002;PMS7003;27693;50.506;30.832;2023-11-21T00:51:49;19.00;16.90;13.40
42002;PMS7003;27693;50.506;30.832;2023-11-21T00:52:51;30.00;23.70;17.70
42002;PMS7003;27693;50.506;30.832;2023-11-21T00:53:55;27.30;22.70;16.50
42002;PMS7003;27693;50.506;30.832;2023-11-21T00:54:58;28.82;25.09;18.91
42002;PMS7003;27693;50.506;30.832;2023-11-21T00:56:05;27.80;24.70;17.20
42002;PMS7003;27693;50.506;30.832;2023-11-21T00:57:11;35.40;27.40;19.60
42002;PMS7003;27693;50.506;30.832;2023-11-21T00:58:14;22.60;20.60;13.70
42002;PMS7003;27693;50.506;30.832;2023-11-21T00:59:16;33.90;27.10;17.80
42002;PMS7003;27693;50.506;30.832;2023-11-21T01:00:19;28.90;26.30;18.50
42002;PMS7003;27693;50.506;30.832;2023-11-21T01:01:21;32.90;27.30;19.50
42002;PMS7003;27693;50.506;30.832;2023-11-21T01:02:25;34.00;25.90;18.00
42002;PMS7003;27693;50.506;30.832;2023-11-21T01:03:28;30.70;25.00;16.80
42002;PMS7003;27693;50.506;30.832;2023-11-21T01:04:30;27.20;22.50;15.60
42002;PMS7003;27693;50.506;30.832;2023-11-21T01:05:34;35.00;25.10;16.80
42002;PMS7003;27693;50.506;30.832;2023-11-21T01:06:37;30.80;27.10;18.70
42002;PMS7003;27693;50.506;30.832;2023-11-21T01:07:40;26.70;21.80;16.10
42002;PMS7003;27693;50.506;30.832;2023-11-21T01:08:43;29.70;25.70;18.30
42002;PMS7003;27693;50.506;30.832;2023-11-21T01:09:46;32.60;24.70;18.50
42002;PMS7003;27693;50.506;30.832;2023-11-21T01:10:48;27.90;22.60;15.80
42002;PMS7003;27693;50.506;30.832;2023-11-21T01:11:51;30.18;24.73;17.73
42002;PMS7003;27693;50.506;30.832;2023-11-21T01:12:55;32.50;27.40;19.60
42002;PMS7003;27693;50.506;30.832;2023-11-21T01:13:57;29.30;24.00;17.80
42002;PMS7003;27693;50.506;30.832;2023-11-21T01:15:02;27.10;22.60;17.40
42002;PMS7003;27693;50.506;30.832;2023-11-21T01:16:06;31.30;25.90;17.30
42002;PMS7003;27693;50.506;30.832;2023-11-21T01:17:09;26.40;22.90;16.90
42002;PMS7003;27693;50.506;30.832;2023-11-21T01:18:12;31.40;26.10;20.20
42002;PMS7003;27693;50.506;30.832;2023-11-21T01:19:15;29.90;25.80;19.00
42002;PMS7003;27693;50.506;30.832;2023-11-21T01:20:17;33.10;28.10;19.50
42002;PMS7003;27693;50.506;30.832;2023-11-21T01:21:21;21.20;14.90;10.80
42002;PMS7003;27693;50.506;30.832;2023-11-21T01:22:24;40.55;33.55;22.27
42002;PMS7003;27693;50.506;30.832;2023-11-21T01:23:28;34.10;25.30;19.40
42002;PMS7003;27693;50.506;30.832;2023-11-21T01:24:32;40.90;33.10;23.00
42002;PMS7003;27693;50.506;30.832;2023-11-21T01:25:35;37.36;30.64;21.82
42002;PMS7003;27693;50.506;30.832;2023-11-21T01:26:37;39.40;31.90;21.80
42002;PMS7003;27693;50.506;30.832;2023-11-21T01:27:41;38.60;30.20;20.50
42002;PMS7003;27693;50.506;30.832;2023-11-21T01:28:44;33.50;28.00;19.50
42002;PMS7003;27693;50.506;30.832;2023-11-21T01:29:47;35.50;28.10;17.40
42002;PMS7003;27693;50.506;30.832;2023-11-21T01:30:50;31.40;27.50;19.90
42002;PMS7003;27693;50.506;30.832;2023-11-21T01:31:54;34.70;29.00;20.80
42002;PMS7003;27693;50.506;30.832;2023-11-21T01:32:57;36.10;29.70;20.50
42002;PMS7003;27693;50.506;30.832;2023-11-21T01:33:59;32.00;28.50;19.30
42002;PMS7003;27693;50.506;30.832;2023-11-21T01:35:03;32.60;26.50;19.50
42002;PMS7003;27693;50.506;30.832;2023-11-21T01:36:08;32.60;28.50;20.30
42002;PMS7003;27693;50.506;30.832;2023-11-21T01:37:12;35.90;27.60;20.50
42002;PMS7003;27693;50.506;30.832;2023-11-21T01:38:15;34.50;29.30;20.10
42002;PMS7003;27693;50.506;30.832;2023-11-21T01:39:19;35.60;28.20;19.50
42002;PMS7003;27693;50.506;30.832;2023-11-21T01:40:24;39.00;30.60;21.80
42002;PMS7003;27693;50.506;30.832;2023-11-21T01:41:26;33.20;30.50;21.40
42002;PMS7003;27693;50.506;30.832;2023-11-21T01:42:30;28.90;22.90;16.80
42002;PMS7003;27693;50.506;30.832;2023-11-21T01:43:33;34.00;28.80;20.10
42002;PMS7003;27693;50.506;30.832;2023-11-21T01:44:37;24.80;22.10;19.50
42002;PMS7003;27693;50.506;30.832;2023-11-21T01:45:40;35.82;30.64;22.09
42002;PMS7003;27693;50.506;30.832;2023-11-21T01:46:43;38.00;29.90;21.00
42002;PMS7003;27693;50.506;30.832;2023-11-21T01:47:45;35.40;31.30;21.30
42002;PMS7003;27693;50.506;30.832;2023-11-21T01:48:48;43.40;33.20;22.20
42002;PMS7003;27693;50.506;30.832;2023-11-21T01:49:51;41.50;34.50;23.70
42002;PMS7003;27693;50.506;30.832;2023-11-21T01:50:55;37.90;32.10;21.70
42002;PMS7003;27693;50.506;30.832;2023-11-21T01:51:58;40.60;35.00;22.70
42002;PMS7003;27693;50.506;30.832;2023-11-21T01:53:02;41.50;33.30;22.60
42002;PMS7003;27693;50.506;30.832;2023-11-21T01:54:06;36.60;29.50;20.50
42002;PMS7003;27693;50.506;30.832;2023-11-21T01:55:11;36.90;31.10;22.20
42002;PMS7003;27693;50.506;30.832;2023-11-21T01:56:19;44.20;33.70;22.40
42002;PMS7003;27693;50.506;30.832;2023-11-21T01:57:23;40.50;32.90;22.00
42002;PMS7003;27693;50.506;30.832;2023-11-21T01:58:26;33.70;25.50;18.30
42002;PMS7003;27693;50.506;30.832;2023-11-21T01:59:31;38.80;32.20;21.80
42002;PMS7003;27693;50.506;30.832;2023-11-21T02:00:35;31.90;28.10;21.70
42002;PMS7003;27693;50.506;30.832;2023-11-21T02:01:41;24.70;18.70;10.70
42002;PMS7003;27693;50.506;30.832;2023-11-21T02:02:44;32.64;27.91;21.18
42002;PMS7003;27693;50.506;30.832;2023-11-21T02:03:49;37.70;29.50;21.00
42002;PMS7003;27693;50.506;30.832;2023-11-21T02:04:52;40.40;31.30;21.00
42002;PMS7003;27693;50.506;30.832;2023-11-21T02:05:55;33.10;29.90;21.30
42002;PMS7003;27693;50.506;30.832;2023-11-21T02:06:57;32.30;28.30;19.20
42002;PMS7003;27693;50.506;30.832;2023-11-21T02:08:00;31.70;27.60;20.40
42002;PMS7003;27693;50.506;30.832;2023-11-21T02:09:04;36.70;28.60;20.20
42002;PMS7003;27693;50.506;30.832;2023-11-21T02:10:08;31.40;27.10;18.50
42002;PMS7003;27693;50.506;30.832;2023-11-21T02:11:11;36.00;28.00;19.60
42002;PMS7003;27693;50.506;30.832;2023-11-21T02:12:15;29.90;25.30;18.20
42002;PMS7003;27693;50.506;30.832;2023-11-21T02:13:17;28.60;26.00;18.80
42002;PMS7003;27693;50.506;30.832;2023-11-21T02:14:21;27.55;24.45;17.27
42002;PMS7003;27693;50.506;30.832;2023-11-21T02:15:24;28.70;21.80;16.30
42002;PMS7003;27693;50.506;30.832;2023-11-21T02:16:28;30.60;25.40;19.40
42002;PMS7003;27693;50.506;30.832;2023-11-21T02:17:33;34.60;27.30;18.10
42002;PMS7003;27693;50.506;30.832;2023-11-21T02:18:36;37.50;27.40;20.10
42002;PMS7003;27693;50.506;30.832;2023-11-21T02:19:39;37.30;24.50;17.30
42002;PMS7003;27693;50.506;30.832;2023-11-21T02:20:41;32.20;26.40;17.90
42002;PMS7003;27693;50.506;30.832;2023-11-21T02:21:45;34.00;27.09;18.27
42002;PMS7003;27693;50.506;30.832;2023-11-21T02:22:56;30.50;26.20;18.00
42002;PMS7003;27693;50.506;30.832;2023-11-21T02:24:00;33.60;26.50;19.60
42002;PMS7003;27693;50.506;30.832;2023-11-21T02:25:03;32.10;26.90;21.00
42002;PMS7003;27693;50.506;30.832;2023-11-21T02:26:06;31.20;26.70;19.60
42002;PMS7003;27693;50.506;30.832;2023-11-21T02:27:09;27.20;24.30;18.90
42002;PMS7003;27693;50.506;30.832;2023-11-21T02:28:14;34.40;25.50;16.00
42002;PMS7003;27693;50.506;30.832;2023-11-21T02:29:18;37.70;30.30;19.00
42002;PMS7003;27693;50.506;30.832;2023-11-21T02:30:23;39.70;32.20;23.70
42002;PMS7003;27693;50.506;30.832;2023-11-21T02:31:33;35.70;29.40;21.20
42002;PMS7003;27693;50.506;30.832;2023-11-21T02:32:36;38.70;31.20;20.40
42002;PMS7003;27693;50.506;30.832;2023-11-21T02:33:40;32.60;27.60;20.90
42002;PMS7003;27693;50.506;30.832;2023-11-21T02:34:44;40.30;29.20;21.30
42002;PMS7003;27693;50.506;30.832;2023-11-21T02:35:46;32.70;25.20;16.10
42002;PMS7003;27693;50.506;30.832;2023-11-21T02:36:49;31.80;26.80;19.20
42002;PMS7003;27693;50.506;30.832;2023-11-21T02:37:53;38.80;30.10;20.70
42002;PMS7003;27693;50.506;30.832;2023-11-21T02:38:56;35.10;31.40;21.10
42002;PMS7003;27693;50.506;30.832;2023-11-21T02:39:59;34.20;27.60;20.00
42002;PMS7003;27693;50.506;30.832;2023-11-21T02:41:01;42.00;31.30;21.50
42002;PMS7003;27693;50.506;30.832;2023-11-21T02:42:07;35.70;29.20;19.60
42002;PMS7003;27693;50.506;30.832;2023-11-21T02:43:10;33.60;29.10;20.30
42002;PMS7003;27693;50.506;30.832;2023-11-21T02:44:12;35.60;28.20;20.60
42002;PMS7003;27693;50.506;30.832;2023-11-21T02:45:14;32.70;29.10;19.40
42002;PMS7003;27693;50.506;30.832;2023-11-21T02:46:19;34.90;29.10;21.20
42002;PMS7003;27693;50.506;30.832;2023-11-21T02:47:21;32.40;29.00;19.50
42002;PMS7003;27693;50.506;30.832;2023-11-21T02:48:27;34.70;28.10;19.50
42002;PMS7003;27693;50.506;30.832;2023-11-21T02:49:29;34.80;28.20;20.20
42002;PMS7003;27693;50.506;30.832;2023-11-21T02:50:32;38.45;28.55;19.18
42002;PMS7003;27693;50.506;30.832;2023-11-21T02:51:37;33.20;28.30;19.90
42002;PMS7003;27693;50.506;30.832;2023-11-21T02:52:41;35.70;29.80;19.80
42002;PMS7003;27693;50.506;30.832;2023-11-21T02:53:43;39.10;29.30;20.10
42002;PMS7003;27693;50.506;30.832;2023-11-21T02:54:48;29.20;27.00;18.10
42002;PMS7003;27693;50.506;30.832;2023-11-21T02:55:50;33.60;29.20;20.90
42002;PMS7003;27693;50.506;30.832;2023-11-21T02:56:54;32.50;27.80;20.20
42002;PMS7003;27693;50.506;30.832;2023-11-21T02:57:56;34.60;31.70;20.80
42002;PMS7003;27693;50.506;30.832;2023-11-21T02:58:59;31.18;28.36;21.18
42002;PMS7003;27693;50.506;30.832;2023-11-21T03:00:03;32.00;27.60;21.10
42002;PMS7003;27693;50.506;30.832;2023-11-21T03:01:09;38.10;31.50;21.00
42002;PMS7003;27693;50.506;30.832;2023-11-21T03:02:12;35.50;30.00;21.70
42002;PMS7003;27693;50.506;30.832;2023-11-21T03:03:14;36.60;29.00;21.80
42002;PMS7003;27693;50.506;30.832;2023-11-21T03:04:17;38.80;32.10;22.70
42002;PMS7003;27693;50.506;30.832;2023-11-21T03:05:19;44.90;35.00;23.40
42002;PMS7003;27693;50.506;30.832;2023-11-21T03:06:22;39.90;33.50;22.00
42002;PMS7003;27693;50.506;30.832;2023-11-21T03:07:25;37.82;32.45;22.18
42002;PMS7003;27693;50.506;30.832;2023-11-21T03:08:27;42.00;31.30;21.20
42002;PMS7003;27693;50.506;30.832;2023-11-21T03:09:30;32.90;27.00;18.70
42002;PMS7003;27693;50.506;30.832;2023-11-21T03:10:32;41.20;33.60;21.90
42002;PMS7003;27693;50.506;30.832;2023-11-21T03:11:35;26.80;25.20;20.00
42002;PMS7003;27693;50.506;30.832;2023-11-21T03:12:38;39.60;32.90;21.90
42002;PMS7003;27693;50.506;30.832;2023-11-21T03:13:41;41.10;31.20;21.80
42002;PMS7003;27693;50.506;30.832;2023-11-21T03:14:43;38.90;32.50;23.00
42002;PMS7003;27693;50.506;30.832;2023-11-21T03:15:46;43.50;33.80;23.60
42002;PMS7003;27693;50.506;30.832;2023-11-21T03:16:49;39.40;31.30;21.70
42002;PMS7003;27693;50.506;30.832;2023-11-21T03:17:52;46.00;35.50;24.30
42002;PMS7003;27693;50.506;30.832;2023-11-21T03:18:54;42.10;33.90;22.30
42002;PMS7003;27693;50.506;30.832;2023-11-21T03:19:58;39.20;33.90;22.20
42002;PMS7003;27693;50.506;30.832;2023-11-21T03:21:00;39.00;33.40;23.30
42002;PMS7003;27693;50.506;30.832;2023-11-21T03:22:03;43.90;35.80;24.00
42002;PMS7003;27693;50.506;30.832;2023-11-21T03:23:06;35.70;26.90;16.30
42002;PMS7003;27693;50.506;30.832;2023-11-21T03:24:08;43.20;34.20;22.90
42002;PMS7003;27693;50.506;30.832;2023-11-21T03:25:10;49.80;33.90;22.50
42002;PMS7003;27693;50.506;30.832;2023-11-21T03:26:14;55.10;38.90;24.90
42002;PMS7003;27693;50.506;30.832;2023-11-21T03:27:17;43.82;35.64;22.73
42002;PMS7003;27693;50.506;30.832;2023-11-21T03:28:19;40.30;35.00;23.90
42002;PMS7003;27693;50.506;30.832;2023-11-21T03:29:21;44.40;34.40;24.30
42002;PMS7003;27693;50.506;30.832;2023-11-21T03:30:24;42.20;35.10;24.30
42002;PMS7003;27693;50.506;30.832;2023-11-21T03:31:26;45.30;36.00;25.60
42002;PMS7003;27693;50.506;30.832;2023-11-21T03:32:29;52.20;40.60;25.50
42002;PMS7003;27693;50.506;30.832;2023-11-21T03:33:33;54.00;40.70;28.40
42002;PMS7003;27693;50.506;30.832;2023-11-21T03:34:42;52.90;42.50;28.20
42002;PMS7003;27693;50.506;30.832;2023-11-21T03:35:43;59.80;44.90;29.80
42002;PMS7003;27693;50.506;30.832;2023-11-21T03:36:47;60.80;46.30;30.00
42002;PMS7003;27693;50.506;30.832;2023-11-21T03:37:49;64.67;48.22;31.22
42002;PMS7003;27693;50.506;30.832;2023-11-21T03:38:51;57.10;44.30;28.20
42002;PMS7003;27693;50.506;30.832;2023-11-21T03:39:54;59.90;45.90;28.60
42002;PMS7003;27693;50.506;30.832;2023-11-21T03:40:58;63.80;49.00;31.70
42002;PMS7003;27693;50.506;30.832;2023-11-21T03:42:02;56.40;43.90;28.70
42002;PMS7003;27693;50.506;30.832;2023-11-21T03:43:05;56.40;41.40;27.30
42002;PMS7003;27693;50.506;30.832;2023-11-21T03:44:08;50.40;38.40;25.40
42002;PMS7003;27693;50.506;30.832;2023-11-21T03:45:11;53.10;39.10;25.70
42002;PMS7003;27693;50.506;30.832;2023-11-21T03:46:15;50.30;39.60;26.40
42002;PMS7003;27693;50.506;30.832;2023-11-21T03:47:17;53.20;37.70;25.10
42002;PMS7003;27693;50.506;30.832;2023-11-21T03:48:22;49.30;37.10;24.90
42002;PMS7003;27693;50.506;30.832;2023-11-21T03:49:24;40.80;31.00;20.80
42002;PMS7003;27693;50.506;30.832;2023-11-21T03:50:31;39.80;32.20;21.20
42002;PMS7003;27693;50.506;30.832;2023-11-21T03:51:32;43.80;36.20;24.20
42002;PMS7003;27693;50.506;30.832;2023-11-21T03:52:37;43.00;31.40;21.10
42002;PMS7003;27693;50.506;30.832;2023-11-21T03:53:40;45.10;34.90;22.90
42002;PMS7003;27693;50.506;30.832;2023-11-21T03:54:44;36.60;29.40;19.00
42002;PMS7003;27693;50.506;30.832;2023-11-21T03:55:47;35.60;29.60;21.30
42002;PMS7003;27693;50.506;30.832;2023-11-21T03:56:49;38.80;31.90;22.40
42002;PMS7003;27693;50.506;30.832;2023-11-21T03:57:52;32.10;29.20;21.50
42002;PMS7003;27693;50.506;30.832;2023-11-21T03:58:54;44.80;34.30;22.40
42002;PMS7003;27693;50.506;30.832;2023-11-21T03:59:56;40.70;33.30;22.40
42002;PMS7003;27693;50.506;30.832;2023-11-21T04:00:59;40.50;32.20;21.70
42002;PMS7003;27693;50.506;30.832;2023-11-21T04:02:01;35.10;23.30;16.20
42002;PMS7003;27693;50.506;30.832;2023-11-21T04:03:04;39.90;29.00;21.40
42002;PMS7003;27693;50.506;30.832;2023-11-21T04:04:06;37.60;33.90;21.80
42002;PMS7003;27693;50.506;30.832;2023-11-21T04:05:09;40.80;33.30;21.90
42002;PMS7003;27693;50.506;30.832;2023-11-21T04:06:11;33.80;30.40;21.20
42002;PMS7003;27693;50.506;30.832;2023-11-21T04:07:14;32.10;29.80;19.10
42002;PMS7003;27693;50.506;30.832;2023-11-21T04:08:16;34.10;28.50;21.20
42002;PMS7003;27693;50.506;30.832;2023-11-21T04:09:19;36.70;31.40;21.00
42002;PMS7003;27693;50.506;30.832;2023-11-21T04:10:22;37.40;31.80;21.10
42002;PMS7003;27693;50.506;30.832;2023-11-21T04:11:25;37.00;29.80;20.70
42002;PMS7003;27693;50.506;30.832;2023-11-21T04:12:27;42.00;30.00;20.20
42002;PMS7003;27693;50.506;30.832;2023-11-21T04:13:30;36.60;29.70;18.70
42002;PMS7003;27693;50.506;30.832;2023-11-21T04:14:33;37.40;32.40;21.80
42002;PMS7003;27693;50.506;30.832;2023-11-21T04:15:35;37.20;33.60;22.80
42002;PMS7003;27693;50.506;30.832;2023-11-21T04:16:37;33.20;31.50;22.40
42002;PMS7003;27693;50.506;30.832;2023-11-21T04:17:41;38.60;31.00;21.20
42002;PMS7003;27693;50.506;30.832;2023-11-21T04:18:44;47.40;34.90;22.50
42002;PMS7003;27693;50.506;30.832;2023-11-21T04:19:46;35.70;30.50;22.40
42002;PMS7003;27693;50.506;30.832;2023-11-21T04:20:50;40.20;30.70;21.80
42002;PMS7003;27693;50.506;30.832;2023-11-21T04:21:52;36.70;30.60;19.70
42002;PMS7003;27693;50.506;30.832;2023-11-21T04:22:54;34.20;26.80;18.70
42002;PMS7003;27693;50.506;30.832;2023-11-21T04:23:57;33.45;28.64;20.36
42002;PMS7003;27693;50.506;30.832;2023-11-21T04:24:59;37.60;31.60;21.90
42002;PMS7003;27693;50.506;30.832;2023-11-21T04:26:02;37.50;27.50;20.40
42002;PMS7003;27693;50.506;30.832;2023-11-21T04:27:04;37.80;28.70;19.70
42002;PMS7003;27693;50.506;30.832;2023-11-21T04:28:07;32.10;26.80;18.70
42002;PMS7003;27693;50.506;30.832;2023-11-21T04:29:09;41.89;30.89;21.00
42002;PMS7003;27693;50.506;30.832;2023-11-21T04:30:13;40.10;29.10;20.40
42002;PMS7003;27693;50.506;30.832;2023-11-21T04:31:17;34.70;28.20;18.80
42002;PMS7003;27693;50.506;30.832;2023-11-21T04:32:19;28.50;22.80;15.50
42002;PMS7003;27693;50.506;30.832;2023-11-21T04:33:21;45.30;30.00;21.50
42002;PMS7003;27693;50.506;30.832;2023-11-21T04:34:24;36.90;29.10;20.10
42002;PMS7003;27693;50.506;30.832;2023-11-21T04:35:26;32.20;30.00;21.00
42002;PMS7003;27693;50.506;30.832;2023-11-21T04:36:28;39.90;27.50;18.50
42002;PMS7003;27693;50.506;30.832;2023-11-21T04:37:32;39.20;31.90;20.70
42002;PMS7003;27693;50.506;30.832;2023-11-21T04:38:34;33.80;24.90;14.10
42002;PMS7003;27693;50.506;30.832;2023-11-21T04:39:38;39.10;31.70;20.50
42002;PMS7003;27693;50.506;30.832;2023-11-21T04:40:40;39.60;30.90;18.50
42002;PMS7003;27693;50.506;30.832;2023-11-21T04:41:42;40.60;31.80;21.00
42002;PMS7003;27693;50.506;30.832;2023-11-21T04:42:46;38.10;31.00;20.40
42002;PMS7003;27693;50.506;30.832;2023-11-21T04:43:48;33.30;27.20;19.30
42002;PMS7003;27693;50.506;30.832;2023-11-21T04:44:51;39.40;30.40;21.00
42002;PMS7003;27693;50.506;30.832;2023-11-21T04:45:55;40.70;34.30;21.70
42002;PMS7003;27693;50.506;30.832;2023-11-21T04:46:57;35.10;30.60;19.20
42002;PMS7003;27693;50.506;30.832;2023-11-21T04:48:00;36.36;30.36;19.73
42002;PMS7003;27693;50.506;30.832;2023-11-21T04:49:02;35.40;30.30;20.20
42002;PMS7003;27693;50.506;30.832;2023-11-21T04:50:05;39.00;32.20;21.90
42002;PMS7003;27693;50.506;30.832;2023-11-21T04:51:08;36.40;29.60;19.80
42002;PMS7003;27693;50.506;30.832;2023-11-21T04:52:10;42.22;31.67;20.00
42002;PMS7003;27693;50.506;30.832;2023-11-21T04:53:13;38.70;30.90;20.60
42002;PMS7003;27693;50.506;30.832;2023-11-21T04:54:16;41.73;30.45;20.73
42002;PMS7003;27693;50.506;30.832;2023-11-21T04:55:18;44.70;31.50;20.80
42002;PMS7003;27693;50.506;30.832;2023-11-21T04:56:21;39.10;31.30;20.90
42002;PMS7003;27693;50.506;30.832;2023-11-21T04:57:23;38.22;28.56;20.11
42002;PMS7003;27693;50.506;30.832;2023-11-21T04:58:25;38.78;32.89;21.33
42002;PMS7003;27693;50.506;30.832;2023-11-21T04:59:28;35.64;32.09;22.18
42002;PMS7003;27693;50.506;30.832;2023-11-21T05:00:31;43.50;31.50;22.50
42002;PMS7003;27693;50.506;30.832;2023-11-21T05:01:35;39.80;32.10;20.20
42002;PMS7003;27693;50.506;30.832;2023-11-21T05:02:39;42.55;35.73;23.82
42002;PMS7003;27693;50.506;30.832;2023-11-21T05:03:43;44.90;34.70;22.50
42002;PMS7003;27693;50.506;30.832;2023-11-21T05:04:46;42.10;34.40;23.70
42002;PMS7003;27693;50.506;30.832;2023-11-21T05:05:49;41.09;34.82;24.36
42002;PMS7003;27693;50.506;30.832;2023-11-21T05:06:51;44.40;34.80;24.00
42002;PMS7003;27693;50.506;30.832;2023-11-21T05:07:54;42.20;32.60;22.40
42002;PMS7003;27693;50.506;30.832;2023-11-21T05:08:56;43.20;33.80;22.50
42002;PMS7003;27693;50.506;30.832;2023-11-21T05:09:59;39.90;34.40;23.60
42002;PMS7003;27693;50.506;30.832;2023-11-21T05:11:01;33.10;29.90;20.90
42002;PMS7003;27693;50.506;30.832;2023-11-21T05:12:04;23.40;15.90;10.70
42002;PMS7003;27693;50.506;30.832;2023-11-21T05:13:07;44.80;31.70;22.30
42002;PMS7003;27693;50.506;30.832;2023-11-21T05:14:12;40.80;33.00;22.60
42002;PMS7003;27693;50.506;30.832;2023-11-21T05:15:16;40.90;35.60;23.10
42002;PMS7003;27693;50.506;30.832;2023-11-21T05:16:19;39.27;32.55;20.82
42002;PMS7003;27693;50.506;30.832;2023-11-21T05:17:22;42.70;31.80;22.20
42002;PMS7003;27693;50.506;30.832;2023-11-21T05:18:24;40.82;31.91;21.36
42002;PMS7003;27693;50.506;30.832;2023-11-21T05:19:31;39.90;31.70;22.70
42002;PMS7003;27693;50.506;30.832;2023-11-21T05:20:35;34.73;30.09;19.82
42002;PMS7003;27693;50.506;30.832;2023-11-21T05:21:39;38.10;31.70;22.70
42002;PMS7003;27693;50.506;30.832;2023-11-21T05:22:42;30.20;26.20;18.60
42002;PMS7003;27693;50.506;30.832;2023-11-21T05:23:45;35.40;30.10;20.70
42002;PMS7003;27693;50.506;30.832;2023-11-21T05:24:48;33.50;26.50;17.80
42002;PMS7003;27693;50.506;30.832;2023-11-21T05:25:50;32.80;25.50;18.30
42002;PMS7003;27693;50.506;30.832;2023-11-21T05:26:53;33.10;29.20;19.80
42002;PMS7003;27693;50.506;30.832;2023-11-21T05:27:56;31.60;26.90;18.50
42002;PMS7003;27693;50.506;30.832;2023-11-21T05:29:00;35.80;27.50;19.60
42002;PMS7003;27693;50.506;30.832;2023-11-21T05:30:03;33.10;27.80;17.60
42002;PMS7003;27693;50.506;30.832;2023-11-21T05:31:08;34.40;25.60;17.50
42002;PMS7003;27693;50.506;30.832;2023-11-21T05:32:12;39.70;27.30;18.30
42002;PMS7003;27693;50.506;30.832;2023-11-21T05:33:15;38.50;30.10;20.20
42002;PMS7003;27693;50.506;30.832;2023-11-21T05:34:17;36.50;28.90;20.10
42002;PMS7003;27693;50.506;30.832;2023-11-21T05:35:20;35.00;29.00;19.90
42002;PMS7003;27693;50.506;30.832;2023-11-21T05:36:23;28.10;25.70;18.70
42002;PMS7003;27693;50.506;30.832;2023-11-21T05:37:28;36.30;25.80;19.40
42002;PMS7003;27693;50.506;30.832;2023-11-21T05:38:30;35.30;28.70;19.60
42002;PMS7003;27693;50.506;30.832;2023-11-21T05:39:33;42.90;33.80;22.20
42002;PMS7003;27693;50.506;30.832;2023-11-21T05:40:35;44.10;34.10;21.80
42002;PMS7003;27693;50.506;30.832;2023-11-21T05:41:38;35.60;31.70;20.30
42002;PMS7003;27693;50.506;30.832;2023-11-21T05:42:40;43.70;35.00;22.50
42002;PMS7003;27693;50.506;30.832;2023-11-21T05:43:43;40.00;32.20;22.00
42002;PMS7003;27693;50.506;30.832;2023-11-21T05:44:45;37.90;28.70;20.30
42002;PMS7003;27693;50.506;30.832;2023-11-21T05:45:47;34.90;28.80;19.60
42002;PMS7003;27693;50.506;30.832;2023-11-21T05:46:53;27.70;19.30;11.60
42002;PMS7003;27693;50.506;30.832;2023-11-21T05:47:57;34.70;29.20;19.20
42002;PMS7003;27693;50.506;30.832;2023-11-21T05:49:00;35.70;27.80;18.60
42002;PMS7003;27693;50.506;30.832;2023-11-21T05:50:03;34.30;27.40;18.70